createdAt,value
2022-08-02T00:04:50.466Z,19.50
2022-08-02T00:09:52.194Z,19.60
2022-08-02T00:14:55.063Z,19.20
2022-08-02T00:19:56.752Z,19.30
2022-08-02T00:24:58.437Z,19.40
2022-08-02T00:30:00.164Z,19.10
2022-08-02T00:45:07.626Z,18.80
2022-08-02T00:55:11.660Z,19.00
2022-08-02T01:00:14.515Z,19.00
2022-08-02T01:10:18.450Z,18.30
2022-08-02T01:15:21.474Z,17.90
2022-08-02T01:20:59.554Z,18.10
2022-08-02T01:26:09.847Z,18.10
2022-08-02T01:31:27.483Z,18.10
2022-08-02T01:36:34.227Z,18.00
2022-08-02T01:52:23.301Z,18.00
2022-08-02T01:57:27.520Z,18.20
2022-08-02T02:02:31.914Z,17.70
2022-08-02T02:07:36.279Z,17.50
2022-08-02T02:12:39.803Z,17.40
2022-08-02T02:28:30.434Z,17.40
2022-08-02T02:59:15.405Z,17.00
2022-08-02T03:04:17.661Z,17.00
2022-08-02T03:24:35.048Z,17.20
2022-08-02T03:34:38.889Z,17.00
2022-08-02T03:44:54.169Z,16.80
2022-08-02T04:10:06.220Z,16.80
2022-08-02T04:15:09.706Z,16.70
2022-08-02T04:20:22.685Z,15.80
2022-08-02T04:25:35.460Z,16.30
2022-08-02T04:30:42.631Z,16.30
2022-08-02T04:35:45.465Z,16.80
2022-08-02T04:40:54.407Z,16.80
2022-08-02T04:45:56.302Z,16.70
2022-08-02T05:11:34.312Z,17.00
2022-08-02T05:36:47.711Z,17.30
2022-08-02T05:41:49.932Z,18.10
2022-08-02T05:46:51.628Z,18.00
2022-08-02T05:52:09.578Z,18.20
2022-08-02T05:57:43.394Z,18.20
2022-08-02T06:02:57.432Z,18.40
2022-08-02T06:07:59.437Z,18.60
2022-08-02T06:13:16.733Z,18.60
2022-08-02T06:18:19.896Z,18.80
2022-08-02T06:23:31.573Z,19.30
2022-08-02T06:28:39.709Z,19.40
2022-08-02T06:33:41.719Z,19.80
2022-08-02T06:38:50.989Z,19.80
2022-08-02T06:54:09.819Z,20.20
2022-08-02T07:04:16.450Z,20.20
2022-08-02T07:14:23.993Z,20.50
2022-08-02T07:24:40.230Z,20.70
2022-08-02T07:29:45.948Z,20.70
2022-08-02T07:34:51.334Z,21.20
2022-08-02T07:39:55.309Z,21.50
2022-08-02T07:44:57.587Z,21.70
2022-08-02T07:55:14.531Z,22.30
2022-08-02T08:15:24.582Z,22.70
2022-08-02T08:20:26.493Z,22.70
2022-08-02T08:25:28.184Z,23.20
2022-08-02T08:30:31.328Z,23.20
2022-08-02T08:45:43.962Z,23.50
2022-08-02T08:51:11.185Z,24.00
2022-08-02T08:56:16.605Z,23.90
2022-08-02T09:01:19.113Z,24.10
2022-08-02T09:06:20.881Z,23.90
2022-08-02T09:11:25.989Z,24.00
2022-08-02T09:16:53.961Z,23.90
2022-08-02T09:22:05.924Z,25.00
2022-08-02T09:27:15.278Z,25.00
2022-08-02T09:32:18.598Z,24.60
2022-08-02T09:37:28.824Z,24.90
2022-08-02T09:42:30.886Z,24.70
2022-08-02T09:52:43.660Z,24.20
2022-08-02T10:03:11.030Z,24.60
2022-08-02T10:08:26.458Z,24.60
2022-08-02T10:13:34.738Z,24.40
2022-08-02T10:23:44.148Z,25.70
2022-08-02T10:28:49.804Z,25.70
2022-08-02T10:33:54.163Z,25.00
2022-08-02T10:44:06.904Z,25.10
2022-08-02T10:49:41.639Z,26.10
2022-08-02T10:54:56.344Z,25.00
2022-08-02T11:00:24.536Z,25.30
2022-08-02T11:05:29.303Z,26.00
2022-08-02T11:10:45.464Z,25.90
2022-08-02T11:16:10.726Z,25.10
2022-08-02T11:21:23.453Z,26.10
2022-08-02T11:26:31.099Z,25.30
2022-08-02T11:31:44.173Z,26.30
2022-08-02T11:36:51.207Z,26.90
2022-08-02T11:41:55.579Z,25.80
2022-08-02T11:47:01.947Z,26.60
2022-08-02T11:52:06.645Z,25.70
2022-08-02T11:57:21.412Z,26.70
2022-08-02T12:02:28.967Z,25.60
2022-08-02T12:07:36.890Z,25.60
2022-08-02T12:12:48.181Z,27.00
2022-08-02T12:18:09.211Z,26.00
2022-08-02T12:23:11.018Z,26.70
2022-08-02T12:28:22.528Z,26.00
2022-08-02T12:33:27.036Z,27.40
2022-08-02T12:38:28.774Z,26.90
2022-08-02T12:43:30.514Z,26.70
2022-08-02T12:48:38.322Z,26.70
2022-08-02T12:53:40.956Z,25.70
2022-08-02T12:58:52.439Z,25.20
2022-08-02T13:04:09.110Z,25.10
2022-08-02T13:09:16.357Z,24.80
2022-08-02T13:14:18.157Z,26.10
2022-08-02T13:19:20.108Z,24.70
2022-08-02T13:24:38.115Z,24.80
2022-08-02T13:29:42.220Z,24.90
2022-08-02T13:34:43.977Z,25.60
2022-08-02T13:40:00.518Z,24.90
2022-08-02T13:45:12.781Z,24.20
2022-08-02T13:50:16.557Z,24.20
2022-08-02T13:55:18.374Z,24.90
2022-08-02T14:00:35.166Z,24.50
2022-08-02T14:05:48.442Z,25.30
2022-08-02T14:10:51.540Z,26.20
2022-08-02T14:15:53.457Z,26.90
2022-08-02T14:20:55.263Z,26.50
2022-08-02T14:25:57.507Z,24.80
2022-08-02T14:30:59.343Z,25.30
2022-08-02T14:36:01.247Z,24.10
2022-08-02T14:41:03.095Z,23.70
2022-08-02T14:46:04.879Z,24.90
2022-08-02T14:51:06.764Z,25.90
2022-08-02T14:56:08.665Z,25.30
2022-08-02T15:01:10.578Z,25.40
2022-08-02T15:06:15.897Z,25.70
2022-08-02T15:11:17.724Z,24.80
2022-08-02T15:16:19.497Z,25.20
2022-08-02T15:21:42.136Z,27.50
2022-08-02T15:26:43.158Z,27.00
2022-08-02T15:31:45.408Z,27.30
2022-08-02T15:36:47.211Z,27.20
2022-08-02T15:41:48.970Z,26.90
2022-08-02T15:46:51.697Z,25.70
2022-08-02T15:51:54.506Z,27.50
2022-08-02T15:56:56.341Z,27.80
2022-08-02T16:01:58.267Z,26.20
2022-08-02T16:07:01.440Z,26.30
2022-08-02T16:12:03.753Z,27.60
2022-08-02T16:17:05.511Z,27.50
2022-08-02T16:22:07.331Z,27.10
2022-08-02T16:27:13.250Z,25.20
2022-08-02T16:32:18.207Z,26.00
2022-08-02T16:37:20.001Z,26.00
2022-08-02T16:42:24.946Z,26.80
2022-08-02T16:47:42.710Z,27.10
2022-08-02T16:52:46.105Z,26.50
2022-08-02T16:57:50.278Z,25.40
2022-08-02T17:02:52.180Z,24.70
2022-08-02T17:08:07.232Z,26.40
2022-08-02T17:13:15.823Z,26.40
2022-08-02T17:18:17.580Z,24.80
2022-08-02T17:24:03.898Z,23.90
2022-08-02T17:34:11.627Z,23.70
2022-08-02T17:39:13.438Z,23.50
2022-08-02T17:44:15.541Z,23.70
2022-08-02T17:49:43.014Z,23.60
2022-08-02T17:54:46.414Z,23.30
2022-08-02T18:00:04.430Z,23.20
2022-08-02T18:05:11.816Z,23.20
2022-08-02T18:10:15.493Z,23.10
2022-08-02T18:15:20.034Z,23.10
2022-08-02T18:20:22.195Z,23.10
2022-08-02T18:25:36.446Z,23.00
2022-08-02T18:30:39.046Z,23.00
2022-08-02T18:35:40.983Z,23.00
2022-08-02T18:40:43.856Z,23.30
2022-08-02T18:46:05.431Z,23.60
2022-08-02T18:51:10.080Z,23.70
2022-08-02T18:56:19.158Z,24.00
2022-08-02T19:01:33.782Z,24.10
2022-08-02T19:06:37.378Z,24.10
2022-08-02T19:11:40.883Z,24.00
2022-08-02T19:16:43.532Z,23.90
2022-08-02T19:22:15.910Z,23.80
2022-08-02T19:27:13.915Z,23.80
2022-08-02T19:32:42.620Z,23.50
2022-08-02T19:37:42.415Z,23.30
2022-08-02T19:44:20.440Z,23.20
2022-08-02T19:48:13.557Z,23.10
2022-08-02T19:53:17.182Z,22.90
2022-08-02T19:58:18.975Z,22.90
2022-08-02T20:03:52.053Z,22.70
2022-08-02T20:08:52.996Z,22.30
2022-08-02T20:13:58.638Z,22.30
2022-08-02T20:19:04.320Z,22.20
2022-08-02T20:24:09.282Z,22.20
2022-08-02T20:29:11.820Z,22.10
2022-08-02T20:34:14.706Z,21.90
2022-08-02T20:39:20.585Z,21.50
2022-08-02T20:44:30.567Z,21.40
2022-08-02T20:49:41.858Z,21.10
2022-08-02T20:54:43.831Z,21.40
2022-08-02T20:59:52.030Z,21.30
2022-08-02T21:04:53.976Z,20.90
2022-08-02T21:09:55.799Z,20.50
2022-08-02T21:14:57.581Z,20.60
2022-08-02T21:20:01.546Z,20.60
2022-08-02T21:25:03.625Z,20.30
2022-08-02T21:30:11.671Z,20.20
2022-08-02T21:35:13.451Z,20.20
2022-08-02T21:40:15.765Z,20.10
2022-08-02T21:45:20.047Z,20.20
2022-08-02T21:50:22.053Z,20.30
2022-08-02T21:56:00.140Z,20.10
2022-08-02T22:00:45.617Z,20.00
2022-08-02T22:05:47.439Z,19.70
2022-08-02T22:11:01.178Z,19.40
2022-08-02T22:16:05.669Z,19.60
2022-08-02T22:21:14.334Z,19.50
2022-08-02T22:26:19.595Z,19.70
2022-08-02T22:31:36.151Z,19.50
2022-08-02T22:36:44.196Z,19.00
2022-08-02T22:42:01.777Z,18.80
2022-08-02T22:47:14.574Z,19.00
2022-08-02T22:52:18.339Z,18.90
2022-08-02T22:57:29.950Z,18.80
2022-08-02T23:02:33.145Z,18.50
2022-08-02T23:07:36.203Z,18.50
2022-08-02T23:12:40.829Z,18.10
2022-08-02T23:18:01.243Z,18.20
2022-08-02T23:23:03.118Z,18.40
2022-08-02T23:28:13.541Z,18.20
2022-08-02T23:33:15.505Z,17.90
2022-08-02T23:38:17.248Z,17.90
2022-08-02T23:43:19.043Z,18.00
2022-08-02T23:48:20.783Z,17.70
2022-08-02T23:53:22.518Z,18.00
2022-08-02T23:58:24.358Z,18.00
